createdAt,value
2022-08-19T00:02:02.016Z,17.50
2022-08-19T00:05:03.204Z,17.50
2022-08-19T00:08:05.022Z,17.50
2022-08-19T00:11:06.077Z,17.50
2022-08-19T00:14:10.101Z,17.50
2022-08-19T00:17:11.098Z,17.50
2022-08-19T00:20:12.075Z,17.50
2022-08-19T00:23:13.040Z,17.50
2022-08-19T00:26:14.089Z,17.40
2022-08-19T00:29:15.064Z,17.40
2022-08-19T00:32:16.096Z,17.30
2022-08-19T00:35:20.074Z,17.30
2022-08-19T00:38:35.140Z,17.30
2022-08-19T00:41:40.071Z,17.10
2022-08-19T00:44:43.083Z,16.90
2022-08-19T00:47:44.025Z,16.60
2022-08-19T00:50:51.564Z,16.40
2022-08-19T00:53:53.037Z,16.30
2022-08-19T00:56:55.184Z,16.10
2022-08-19T01:00:03.067Z,15.90
2022-08-19T01:03:04.109Z,15.80
2022-08-19T01:06:08.107Z,15.70
2022-08-19T01:09:10.123Z,15.60
2022-08-19T01:12:11.129Z,15.50
2022-08-19T01:15:13.211Z,15.40
2022-08-19T01:18:21.053Z,15.30
2022-08-19T01:21:34.143Z,15.30
2022-08-19T01:24:35.119Z,15.20
2022-08-19T01:27:55.067Z,15.20
2022-08-19T01:30:56.080Z,15.10
2022-08-19T01:33:57.062Z,15.00
2022-08-19T01:37:01.056Z,15.00
2022-08-19T01:40:04.383Z,14.90
2022-08-19T01:43:08.069Z,14.90
2022-08-19T01:46:09.058Z,14.80
2022-08-19T01:49:10.234Z,14.70
2022-08-19T01:52:11.129Z,14.60
2022-08-19T01:55:12.083Z,14.60
2022-08-19T01:58:17.234Z,14.60
2022-08-19T02:01:20.142Z,14.60
2022-08-19T02:04:22.150Z,14.60
2022-08-19T02:07:23.243Z,14.60
2022-08-19T02:10:29.083Z,14.70
2022-08-19T02:13:30.155Z,14.70
2022-08-19T02:16:33.140Z,14.70
2022-08-19T02:19:34.119Z,14.70
2022-08-19T02:22:35.100Z,14.70
2022-08-19T02:25:36.082Z,14.60
2022-08-19T02:28:37.256Z,14.70
2022-08-19T02:31:40.244Z,14.60
2022-08-19T02:34:41.256Z,14.60
2022-08-19T02:38:01.102Z,14.70
2022-08-19T02:41:18.180Z,14.60
2022-08-19T02:44:29.586Z,14.60
2022-08-19T02:47:33.171Z,14.60
2022-08-19T02:50:34.164Z,14.60
2022-08-19T02:53:37.389Z,14.60
2022-08-19T02:56:38.113Z,14.50
2022-08-19T02:59:32.307Z,14.50
2022-08-19T03:02:27.170Z,14.40
2022-08-19T03:05:46.822Z,14.30
2022-08-19T03:08:50.294Z,14.20
2022-08-19T03:11:52.721Z,13.90
2022-08-19T03:14:54.134Z,13.80
2022-08-19T03:17:55.127Z,13.60
2022-08-19T03:21:04.183Z,13.50
2022-08-19T03:24:08.326Z,13.30
2022-08-19T03:27:10.187Z,13.20
2022-08-19T03:30:11.701Z,13.10
2022-08-19T03:33:17.963Z,13.00
2022-08-19T03:36:30.195Z,12.90
2022-08-19T03:39:32.203Z,12.80
2022-08-19T03:42:48.792Z,12.60
2022-08-19T03:45:50.207Z,12.40
2022-08-19T03:48:52.227Z,12.30
2022-08-19T03:51:53.204Z,12.20
2022-08-19T03:54:54.148Z,12.10
2022-08-19T03:57:59.050Z,11.90
2022-08-19T04:01:00.375Z,11.80
2022-08-19T04:04:02.226Z,11.70
2022-08-19T04:07:05.232Z,11.70
2022-08-19T04:10:07.190Z,11.60
2022-08-19T04:13:11.238Z,11.50
2022-08-19T04:16:12.196Z,11.50
2022-08-19T04:19:16.330Z,11.50
2022-08-19T04:22:19.142Z,11.50
2022-08-19T04:25:20.236Z,11.50
2022-08-19T04:28:22.241Z,11.40
2022-08-19T04:31:30.187Z,11.40
2022-08-19T04:34:34.260Z,11.30
2022-08-19T04:37:35.899Z,11.30
2022-08-19T04:40:55.222Z,11.30
2022-08-19T04:43:56.183Z,11.30
2022-08-19T04:46:59.240Z,11.30
2022-08-19T04:50:00.198Z,11.20
2022-08-19T04:53:01.344Z,11.20
2022-08-19T04:56:02.236Z,11.20
2022-08-19T04:59:04.379Z,11.10
2022-08-19T05:02:05.187Z,11.00
2022-08-19T05:05:12.203Z,11.00
2022-08-19T05:08:13.253Z,10.90
2022-08-19T05:11:26.336Z,10.90
2022-08-19T05:14:28.198Z,10.90
2022-08-19T05:17:32.346Z,10.80
2022-08-19T05:20:53.263Z,10.80
2022-08-19T05:23:54.217Z,10.80
2022-08-19T05:26:58.239Z,10.80
2022-08-19T05:29:59.268Z,10.80
2022-08-19T05:33:00.188Z,10.90
2022-08-19T05:36:01.387Z,11.10
2022-08-19T05:39:02.248Z,11.20
2022-08-19T05:42:11.267Z,11.30
2022-08-19T05:45:12.252Z,11.40
2022-08-19T05:48:14.223Z,11.50
2022-08-19T05:51:25.244Z,11.70
2022-08-19T05:54:28.221Z,11.90
2022-08-19T05:57:29.229Z,12.10
2022-08-19T06:00:30.236Z,12.30
2022-08-19T06:03:31.375Z,12.30
2022-08-19T06:06:33.316Z,12.40
2022-08-19T06:09:36.279Z,12.40
2022-08-19T06:12:39.267Z,12.50
2022-08-19T06:15:40.283Z,12.70
2022-08-19T06:18:41.397Z,12.90
2022-08-19T06:21:52.292Z,13.00
2022-08-19T06:24:53.282Z,13.10
2022-08-19T06:28:14.108Z,13.30
2022-08-19T06:31:21.288Z,13.50
2022-08-19T06:34:22.315Z,13.70
2022-08-19T06:37:23.258Z,13.90
2022-08-19T06:40:25.430Z,14.10
2022-08-19T06:43:28.262Z,14.40
2022-08-19T06:46:31.325Z,14.60
2022-08-19T06:49:38.316Z,14.80
2022-08-19T06:52:39.272Z,15.00
2022-08-19T06:55:40.338Z,15.10
2022-08-19T06:58:41.322Z,15.30
2022-08-19T07:01:42.324Z,15.50
2022-08-19T07:04:46.294Z,15.60
2022-08-19T07:07:47.679Z,15.80
2022-08-19T07:10:48.254Z,16.00
2022-08-19T07:13:51.284Z,16.10
2022-08-19T07:16:55.273Z,16.20
2022-08-19T07:19:57.298Z,16.30
2022-08-19T07:22:58.321Z,16.50
2022-08-19T07:25:59.378Z,16.70
2022-08-19T07:29:02.287Z,16.80
2022-08-19T07:32:06.500Z,17.00
2022-08-19T07:35:13.292Z,17.20
2022-08-19T07:38:14.328Z,17.30
2022-08-19T07:41:15.373Z,17.30
2022-08-19T07:44:16.353Z,17.30
2022-08-19T07:47:49.270Z,17.50
2022-08-19T07:50:39.305Z,17.70
2022-08-19T07:53:43.330Z,17.80
2022-08-19T07:56:44.308Z,17.80
2022-08-19T07:59:45.306Z,17.80
2022-08-19T08:02:46.412Z,17.80
2022-08-19T08:06:06.341Z,17.90
2022-08-19T08:09:19.328Z,18.00
2022-08-19T08:12:34.613Z,18.10
2022-08-19T08:15:41.305Z,18.30
2022-08-19T08:18:50.729Z,18.30
2022-08-19T08:21:54.409Z,18.50
2022-08-19T08:24:56.396Z,18.50
2022-08-19T08:27:59.319Z,18.50
2022-08-19T08:31:03.355Z,18.70
2022-08-19T08:34:10.460Z,18.80
2022-08-19T08:37:11.472Z,18.80
2022-08-19T08:40:13.451Z,18.90
2022-08-19T08:43:23.396Z,19.00
2022-08-19T08:46:32.617Z,19.10
2022-08-19T08:49:41.332Z,19.30
2022-08-19T08:52:51.365Z,19.70
2022-08-19T08:55:54.351Z,20.00
2022-08-19T08:59:21.369Z,20.20
2022-08-19T09:02:23.412Z,20.10
2022-08-19T09:05:28.377Z,20.00
2022-08-19T09:09:19.642Z,19.80
2022-08-19T09:12:45.368Z,19.50
2022-08-19T09:15:55.546Z,19.20
2022-08-19T09:19:09.129Z,19.30
2022-08-19T09:22:09.357Z,19.60
2022-08-19T09:25:12.397Z,19.50
2022-08-19T09:28:22.416Z,19.30
2022-08-19T09:31:27.463Z,19.70
2022-08-19T09:34:28.385Z,19.90
2022-08-19T09:37:30.376Z,19.80
2022-08-19T09:40:37.741Z,19.30
2022-08-19T09:43:44.611Z,19.00
2022-08-19T09:46:48.503Z,19.10
2022-08-19T09:49:49.425Z,19.20
2022-08-19T09:52:54.086Z,19.10
2022-08-19T09:55:58.400Z,19.20
2022-08-19T09:58:59.409Z,19.20
2022-08-19T10:02:03.675Z,19.30
2022-08-19T10:05:29.446Z,19.40
2022-08-19T10:08:37.431Z,19.60
2022-08-19T10:11:39.496Z,19.80
2022-08-19T10:14:41.375Z,19.80
2022-08-19T10:17:47.579Z,19.80
2022-08-19T10:20:55.385Z,19.80
2022-08-19T10:23:59.393Z,19.80
2022-08-19T10:27:00.405Z,19.80
2022-08-19T10:30:01.421Z,19.80
2022-08-19T10:33:05.442Z,19.70
2022-08-19T10:36:33.439Z,19.70
2022-08-19T10:39:43.267Z,19.80
2022-08-19T10:42:44.420Z,19.80
2022-08-19T10:45:52.589Z,20.00
2022-08-19T10:48:53.455Z,20.30
2022-08-19T10:52:20.183Z,20.30
2022-08-19T10:55:40.448Z,20.30
2022-08-19T10:58:41.418Z,20.30
2022-08-19T11:01:42.578Z,20.70
2022-08-19T11:04:44.417Z,21.10
2022-08-19T11:07:47.499Z,21.40
2022-08-19T11:10:50.556Z,21.60
2022-08-19T11:13:54.479Z,21.50
2022-08-19T11:16:56.440Z,21.40
2022-08-19T11:19:57.419Z,21.20
2022-08-19T11:22:58.450Z,21.00
2022-08-19T11:26:02.215Z,20.90
2022-08-19T11:29:04.886Z,21.00
2022-08-19T11:32:05.454Z,21.20
2022-08-19T11:34:59.464Z,21.10
2022-08-19T11:38:00.436Z,21.10
2022-08-19T11:41:15.456Z,21.30
2022-08-19T11:44:17.474Z,21.40
2022-08-19T11:47:19.535Z,21.40
2022-08-19T11:50:20.537Z,21.30
2022-08-19T11:53:21.652Z,21.30
2022-08-19T11:56:23.647Z,21.30
2022-08-19T11:59:24.480Z,21.40
2022-08-19T12:02:25.531Z,21.60
2022-08-19T12:05:26.484Z,21.60
2022-08-19T12:08:28.580Z,21.50
2022-08-19T12:11:29.514Z,21.50
2022-08-19T12:14:35.669Z,21.60
2022-08-19T12:17:39.480Z,21.70
2022-08-19T12:20:40.545Z,21.80
2022-08-19T12:23:41.537Z,21.80
2022-08-19T12:26:53.396Z,21.90
2022-08-19T12:29:54.497Z,21.80
2022-08-19T12:32:55.554Z,21.60
2022-08-19T12:35:58.547Z,21.50
2022-08-19T12:38:59.655Z,21.50
2022-08-19T12:42:00.534Z,21.30
2022-08-19T12:45:01.510Z,21.10
2022-08-19T12:48:02.517Z,21.00
2022-08-19T12:51:29.561Z,20.90
2022-08-19T12:54:30.628Z,21.00
2022-08-19T12:57:32.810Z,21.10
2022-08-19T13:00:36.577Z,21.00
2022-08-19T13:03:40.571Z,21.00
2022-08-19T13:06:41.564Z,20.90
2022-08-19T13:09:42.508Z,20.90
2022-08-19T13:12:43.507Z,20.80
2022-08-19T13:15:48.588Z,20.90
2022-08-19T13:18:49.636Z,21.30
2022-08-19T13:24:47.707Z,22.30
2022-08-19T13:27:49.625Z,22.50
2022-08-19T13:31:08.634Z,22.40
2022-08-19T13:34:10.563Z,22.30
2022-08-19T13:37:14.618Z,22.30
2022-08-19T13:40:15.611Z,22.60
2022-08-19T13:43:23.044Z,22.80
2022-08-19T13:46:25.584Z,22.90
2022-08-19T13:49:27.549Z,22.80
2022-08-19T13:52:31.119Z,22.60
2022-08-19T13:55:31.662Z,22.70
2022-08-19T13:58:32.872Z,23.00
2022-08-19T14:01:36.598Z,23.20
2022-08-19T14:04:37.567Z,23.00
2022-08-19T14:07:38.577Z,22.70
2022-08-19T14:10:41.637Z,22.50
2022-08-19T14:13:42.605Z,22.30
2022-08-19T14:16:43.632Z,22.30
2022-08-19T14:19:44.614Z,22.20
2022-08-19T14:22:53.615Z,22.10
2022-08-19T14:25:54.581Z,21.90
2022-08-19T14:28:56.639Z,21.80
2022-08-19T14:31:57.588Z,21.80
2022-08-19T14:34:59.588Z,22.10
2022-08-19T14:38:03.606Z,22.60
2022-08-19T14:41:05.699Z,22.80
2022-08-19T14:44:08.632Z,22.80
2022-08-19T14:47:10.018Z,22.80
2022-08-19T14:50:18.055Z,22.80
2022-08-19T14:53:22.735Z,22.60
2022-08-19T14:56:27.817Z,22.50
2022-08-19T14:59:29.642Z,22.60
2022-08-19T15:02:34.966Z,22.80
2022-08-19T15:05:36.646Z,23.00
2022-08-19T15:08:37.669Z,23.20
2022-08-19T15:11:40.766Z,23.10
2022-08-19T15:14:42.715Z,22.80
2022-08-19T15:17:46.460Z,22.70
2022-08-19T15:20:47.672Z,22.70
2022-08-19T15:23:50.761Z,22.80
2022-08-19T15:26:58.609Z,22.90
2022-08-19T15:30:01.271Z,23.00
2022-08-19T15:33:03.671Z,22.90
2022-08-19T15:36:04.608Z,22.90
2022-08-19T15:39:05.605Z,22.80
2022-08-19T15:42:07.887Z,22.80
2022-08-19T15:45:08.774Z,22.40
2022-08-19T15:48:09.720Z,22.10
2022-08-19T15:51:10.730Z,21.80
2022-08-19T15:54:13.639Z,21.70
2022-08-19T15:57:29.858Z,21.60
2022-08-19T16:00:52.695Z,21.60
2022-08-19T16:04:14.931Z,22.10
2022-08-19T16:07:16.726Z,22.60
2022-08-19T16:10:26.328Z,22.60
2022-08-19T16:13:30.676Z,22.30
2022-08-19T16:16:35.681Z,22.10
2022-08-19T16:19:37.773Z,22.10
2022-08-19T16:22:43.855Z,22.30
2022-08-19T16:25:45.685Z,22.70
2022-08-19T16:28:46.843Z,22.60
2022-08-19T16:31:50.648Z,22.30
2022-08-19T16:34:54.670Z,22.00
2022-08-19T16:37:55.890Z,21.70
2022-08-19T16:41:00.725Z,21.50
2022-08-19T16:44:02.743Z,21.40
2022-08-19T16:47:06.774Z,21.30
2022-08-19T16:50:00.697Z,21.10
2022-08-19T16:53:05.464Z,20.80
2022-08-19T16:56:05.670Z,20.70
2022-08-19T16:59:06.761Z,20.70
2022-08-19T17:02:07.888Z,20.80
2022-08-19T17:05:10.708Z,21.00
2022-08-19T17:08:11.678Z,21.30
2022-08-19T17:11:18.521Z,21.70
2022-08-19T17:14:19.667Z,22.00
2022-08-19T17:17:20.670Z,22.00
2022-08-19T17:20:21.739Z,21.80
2022-08-19T17:23:42.913Z,21.40
2022-08-19T17:26:45.675Z,21.10
2022-08-19T17:29:47.230Z,20.70
2022-08-19T17:32:47.817Z,20.40
2022-08-19T17:35:50.904Z,20.30
2022-08-19T17:38:51.772Z,20.60
2022-08-19T17:41:52.778Z,20.90
2022-08-19T17:44:53.815Z,21.30
2022-08-19T17:47:54.844Z,21.50
2022-08-19T17:50:55.771Z,21.50
2022-08-19T17:53:56.750Z,21.60
2022-08-19T17:56:59.705Z,21.80
2022-08-19T18:00:00.717Z,22.00
2022-08-19T18:03:11.764Z,21.80
2022-08-19T18:06:12.779Z,21.50
2022-08-19T18:09:13.873Z,21.60
2022-08-19T18:12:15.882Z,21.80
2022-08-19T18:15:20.783Z,22.30
2022-08-19T18:18:21.896Z,22.40
2022-08-19T18:21:23.727Z,22.50
2022-08-19T18:24:24.775Z,22.50
2022-08-19T18:27:25.745Z,22.60
2022-08-19T18:30:28.817Z,22.50
2022-08-19T18:33:29.746Z,22.40
2022-08-19T18:36:52.499Z,22.30
2022-08-19T18:40:12.044Z,22.00
2022-08-19T18:43:30.763Z,21.80
2022-08-19T18:46:50.826Z,21.40
2022-08-19T18:49:51.743Z,21.10
2022-08-19T18:52:53.740Z,20.80
2022-08-19T18:55:58.948Z,20.40
2022-08-19T18:58:59.865Z,20.00
2022-08-19T19:02:00.748Z,19.60
2022-08-19T19:05:06.872Z,19.20
2022-08-19T19:08:07.860Z,18.80
2022-08-19T19:11:12.807Z,18.50
2022-08-19T19:14:16.293Z,18.20
2022-08-19T19:17:33.819Z,17.90
2022-08-19T19:20:37.840Z,17.60
2022-08-19T19:23:38.878Z,17.40
2022-08-19T19:26:39.971Z,17.20
2022-08-19T19:29:42.848Z,17.00
2022-08-19T19:32:44.840Z,16.80
2022-08-19T19:35:47.044Z,16.60
2022-08-19T19:38:50.841Z,16.40
2022-08-19T19:41:51.875Z,16.30
2022-08-19T19:44:56.819Z,16.10
2022-08-19T19:48:20.947Z,16.00
2022-08-19T19:51:24.986Z,15.80
2022-08-19T19:54:27.795Z,15.70
2022-08-19T19:57:29.842Z,15.50
2022-08-19T20:00:32.818Z,15.40
2022-08-19T20:03:34.817Z,15.30
2022-08-19T20:13:09.843Z,14.90
2022-08-19T20:24:09.354Z,14.50
2022-08-19T20:41:37.896Z,14.40
2022-08-19T20:44:38.869Z,14.40
2022-08-19T20:47:39.888Z,14.40
2022-08-19T20:50:41.905Z,14.50
2022-08-19T20:53:42.983Z,14.50
2022-08-19T20:56:43.828Z,14.50
2022-08-19T20:59:44.817Z,14.50
2022-08-19T21:03:07.825Z,14.50
2022-08-19T21:06:09.888Z,14.50
2022-08-19T21:09:13.894Z,14.50
2022-08-19T21:12:51.852Z,14.50
2022-08-19T21:15:52.923Z,14.40
2022-08-19T21:18:53.875Z,14.40
2022-08-19T21:21:54.919Z,14.40
2022-08-19T21:24:55.934Z,14.40
2022-08-19T21:27:57.030Z,14.30
2022-08-19T21:30:58.921Z,14.30
2022-08-19T21:34:08.884Z,14.30
2022-08-19T21:37:17.685Z,14.20
2022-08-19T21:40:25.980Z,14.10
2022-08-19T21:43:26.907Z,14.10
2022-08-19T21:46:27.943Z,14.00
2022-08-19T21:49:29.229Z,13.90
2022-08-19T21:52:39.886Z,13.90
2022-08-19T21:55:42.846Z,13.80
2022-08-19T21:58:43.963Z,13.70
2022-08-19T22:01:48.835Z,13.70
2022-08-19T22:04:52.993Z,13.60
2022-08-19T22:07:54.118Z,13.60
2022-08-19T22:10:55.860Z,13.70
2022-08-19T22:13:59.950Z,13.60
2022-08-19T22:17:04.923Z,13.60
2022-08-19T22:20:06.919Z,13.50
2022-08-19T22:23:10.929Z,13.50
2022-08-19T22:26:12.953Z,13.50
2022-08-19T22:29:15.688Z,13.50
2022-08-19T22:32:27.015Z,13.50
2022-08-19T22:35:37.935Z,13.50
2022-08-19T22:38:39.875Z,13.40
2022-08-19T22:41:40.932Z,13.50
2022-08-19T22:44:41.962Z,13.50
2022-08-19T22:47:42.953Z,13.40
2022-08-19T22:50:43.956Z,13.40
2022-08-19T22:53:46.989Z,13.40
2022-08-19T22:56:47.972Z,13.40
2022-08-19T22:59:48.909Z,13.30
2022-08-19T23:02:51.569Z,13.30
2022-08-19T23:05:52.910Z,13.30
2022-08-19T23:08:55.945Z,13.30
2022-08-19T23:11:58.077Z,13.30
2022-08-19T23:14:58.904Z,13.30
2022-08-19T23:18:00.094Z,13.30
2022-08-19T23:21:00.952Z,13.30
2022-08-19T23:24:01.935Z,13.30
2022-08-19T23:27:20.955Z,13.30
2022-08-19T23:30:34.133Z,13.20
2022-08-19T23:33:51.694Z,13.20
2022-08-19T23:36:52.993Z,13.10
2022-08-19T23:39:54.023Z,13.10
2022-08-19T23:42:55.979Z,13.10
2022-08-19T23:45:57.975Z,13.10
2022-08-19T23:49:02.023Z,12.90
2022-08-19T23:52:02.978Z,12.80
2022-08-19T23:55:03.960Z,12.80
2022-08-19T23:58:06.107Z,12.80
